sensor_id;sensor_type;location;lat;lon;timestamp;pressure;altitude;pressure_sealevel;temperature;humidity
45864;BME280;31579;52.354;16.974;2023-05-01T00:00:26;-60.2;;;-146.1;100.0
45864;BME280;31579;52.354;16.974;2023-05-01T00:01:30;-60.3;;;-146.1;100.0
45864;BME280;31579;52.354;16.974;2023-05-01T00:02:34;-59.9;;;-146.1;100.0
45864;BME280;31579;52.354;16.974;2023-05-01T00:03:38;-61.3;;;-146.1;100.0
45864;BME280;31579;52.354;16.974;2023-05-01T00:04:42;-60.2;;;-146.1;100.0
45864;BME280;31579;52.354;16.974;2023-05-01T00:05:46;-59.2;;;-146.1;100.0
45864;BME280;31579;52.354;16.974;2023-05-01T00:06:50;-56.2;;;-146.1;100.0
45864;BME280;31579;52.354;16.974;2023-05-01T00:07:54;-56.8;;;-146.1;100.0
45864;BME280;31579;52.354;16.974;2023-05-01T00:08:58;-56.9;;;-146.1;100.0
45864;BME280;31579;52.354;16.974;2023-05-01T00:10:02;-57.0;;;-146.1;100.0
45864;BME280;31579;52.354;16.974;2023-05-01T00:11:06;-58.6;;;-146.1;100.0
45864;BME280;31579;52.354;16.974;2023-05-01T00:12:10;-61.5;;;-146.1;100.0
45864;BME280;31579;52.354;16.974;2023-05-01T00:13:14;-66.3;;;-146.1;100.0
45864;BME280;31579;52.354;16.974;2023-05-01T00:14:18;-70.9;;;-146.1;100.0
45864;BME280;31579;52.354;16.974;2023-05-01T00:15:22;-72.8;;;-146.1;100.0
45864;BME280;31579;52.354;16.974;2023-05-01T00:16:26;-73.6;;;-146.1;100.0
45864;BME280;31579;52.354;16.974;2023-05-01T00:17:30;-75.7;;;-146.1;100.0
45864;BME280;31579;52.354;16.974;2023-05-01T00:18:34;-76.8;;;-146.1;100.0
45864;BME280;31579;52.354;16.974;2023-05-01T00:19:38;-77.0;;;-146.1;100.0
45864;BME280;31579;52.354;16.974;2023-05-01T00:20:43;-77.8;;;-146.1;100.0
45864;BME280;31579;52.354;16.974;2023-05-01T00:21:47;-75.9;;;-146.1;100.0
45864;BME280;31579;52.354;16.974;2023-05-01T00:22:51;-75.1;;;-146.1;100.0
45864;BME280;31579;52.354;16.974;2023-05-01T00:23:56;-73.4;;;-146.1;100.0
45864;BME280;31579;52.354;16.974;2023-05-01T00:25:00;-74.0;;;-146.1;100.0
45864;BME280;31579;52.354;16.974;2023-05-01T00:26:04;-74.8;;;-146.1;100.0
45864;BME280;31579;52.354;16.974;2023-05-01T00:27:08;-75.5;;;-146.1;100.0
45864;BME280;31579;52.354;16.974;2023-05-01T00:28:13;-76.5;;;-146.1;100.0
45864;BME280;31579;52.354;16.974;2023-05-01T00:29:17;-78.4;;;-146.1;100.0
45864;BME280;31579;52.354;16.974;2023-05-01T00:30:21;-80.4;;;-146.1;100.0
45864;BME280;31579;52.354;16.974;2023-05-01T00:31:25;-82.2;;;-146.1;100.0
45864;BME280;31579;52.354;16.974;2023-05-01T00:32:29;-84.2;;;-146.1;100.0
45864;BME280;31579;52.354;16.974;2023-05-01T00:33:33;-85.8;;;-146.1;100.0
45864;BME280;31579;52.354;16.974;2023-05-01T00:34:37;-87.3;;;-146.1;100.0
45864;BME280;31579;52.354;16.974;2023-05-01T00:36:45;-89.1;;;-146.1;100.0
45864;BME280;31579;52.354;16.974;2023-05-01T00:37:49;-89.0;;;-146.1;100.0
45864;BME280;31579;52.354;16.974;2023-05-01T00:38:53;-91.0;;;-146.1;100.0
45864;BME280;31579;52.354;16.974;2023-05-01T00:39:57;-92.2;;;-146.1;100.0
45864;BME280;31579;52.354;16.974;2023-05-01T00:41:01;-93.1;;;-146.1;100.0
45864;BME280;31579;52.354;16.974;2023-05-01T00:42:04;-96.1;;;-146.1;100.0
45864;BME280;31579;52.354;16.974;2023-05-01T00:43:08;-94.7;;;-146.1;100.0
45864;BME280;31579;52.354;16.974;2023-05-01T00:44:12;-93.2;;;-146.1;100.0
45864;BME280;31579;52.354;16.974;2023-05-01T00:45:15;-98.0;;;-146.1;100.0
45864;BME280;31579;52.354;16.974;2023-05-01T00:46:18;-97.8;;;-146.1;100.0
45864;BME280;31579;52.354;16.974;2023-05-01T00:47:23;-98.0;;;-146.1;100.0
45864;BME280;31579;52.354;16.974;2023-05-01T00:48:27;-99.9;;;-146.1;100.0
45864;BME280;31579;52.354;16.974;2023-05-01T00:49:31;-101.2;;;-146.1;100.0
45864;BME280;31579;52.354;16.974;2023-05-01T00:50:35;-102.8;;;-146.1;100.0
45864;BME280;31579;52.354;16.974;2023-05-01T00:51:39;-103.2;;;-146.1;100.0
45864;BME280;31579;52.354;16.974;2023-05-01T00:52:43;-103.4;;;-146.1;100.0
45864;BME280;31579;52.354;16.974;2023-05-01T00:53:48;-104.5;;;-146.1;100.0
45864;BME280;31579;52.354;16.974;2023-05-01T00:54:52;-105.6;;;-146.1;100.0
45864;BME280;31579;52.354;16.974;2023-05-01T00:55:56;-106.9;;;-146.1;100.0
45864;BME280;31579;52.354;16.974;2023-05-01T00:57:00;-107.9;;;-146.1;100.0
45864;BME280;31579;52.354;16.974;2023-05-01T00:58:04;-108.5;;;-146.1;100.0
45864;BME280;31579;52.354;16.974;2023-05-01T00:59:08;-108.8;;;-146.1;100.0
45864;BME280;31579;52.354;16.974;2023-05-01T01:00:12;-108.4;;;-146.1;100.0
45864;BME280;31579;52.354;16.974;2023-05-01T01:01:16;-107.2;;;-146.1;100.0
45864;BME280;31579;52.354;16.974;2023-05-01T01:02:20;-106.1;;;-146.1;100.0
45864;BME280;31579;52.354;16.974;2023-05-01T01:03:24;-105.8;;;-146.1;100.0
45864;BME280;31579;52.354;16.974;2023-05-01T01:04:28;-106.8;;;-146.1;100.0
45864;BME280;31579;52.354;16.974;2023-05-01T01:05:32;-107.7;;;-146.1;100.0
45864;BME280;31579;52.354;16.974;2023-05-01T01:07:45;-105.6;;;-146.1;100.0
45864;BME280;31579;52.354;16.974;2023-05-01T01:08:47;-105.0;;;-146.1;100.0
45864;BME280;31579;52.354;16.974;2023-05-01T01:10:53;-103.2;;;-146.1;100.0
45864;BME280;31579;52.354;16.974;2023-05-01T01:17:18;-99.4;;;-146.1;100.0
45864;BME280;31579;52.354;16.974;2023-05-01T01:18:29;-98.6;;;-146.1;100.0
45864;BME280;31579;52.354;16.974;2023-05-01T01:22:36;-102.4;;;-146.1;100.0
45864;BME280;31579;52.354;16.974;2023-05-01T01:23:44;-103.3;;;-146.1;100.0
45864;BME280;31579;52.354;16.974;2023-05-01T01:30:11;-103.7;;;-146.1;100.0
45864;BME280;31579;52.354;16.974;2023-05-01T01:31:12;-104.5;;;-146.1;100.0
45864;BME280;31579;52.354;16.974;2023-05-01T01:34:24;-103.7;;;-146.1;100.0
45864;BME280;31579;52.354;16.974;2023-05-01T01:35:28;-103.0;;;-146.1;100.0
45864;BME280;31579;52.354;16.974;2023-05-01T01:36:36;-102.4;;;-146.1;100.0
45864;BME280;31579;52.354;16.974;2023-05-01T01:38:41;-101.6;;;-146.1;100.0
45864;BME280;31579;52.354;16.974;2023-05-01T01:39:48;-103.5;;;-146.1;100.0
45864;BME280;31579;52.354;16.974;2023-05-01T01:41:52;-106.0;;;-146.1;100.0
45864;BME280;31579;52.354;16.974;2023-05-01T01:44:08;-109.0;;;-146.1;100.0
45864;BME280;31579;52.354;16.974;2023-05-01T01:45:06;-113.5;;;-146.1;100.0
45864;BME280;31579;52.354;16.974;2023-05-01T01:46:07;-115.0;;;-146.1;100.0
45864;BME280;31579;52.354;16.974;2023-05-01T01:47:11;-116.7;;;-146.1;100.0
45864;BME280;31579;52.354;16.974;2023-05-01T01:48:16;-117.4;;;-146.1;100.0
45864;BME280;31579;52.354;16.974;2023-05-01T01:49:22;-117.9;;;-146.1;100.0
45864;BME280;31579;52.354;16.974;2023-05-01T01:50:24;-118.7;;;-146.1;100.0
45864;BME280;31579;52.354;16.974;2023-05-01T01:51:28;-119.9;;;-146.1;100.0
45864;BME280;31579;52.354;16.974;2023-05-01T01:52:32;-121.0;;;-146.1;100.0
45864;BME280;31579;52.354;16.974;2023-05-01T01:53:36;-122.3;;;-146.1;100.0
45864;BME280;31579;52.354;16.974;2023-05-01T01:54:42;-123.7;;;-146.1;100.0
45864;BME280;31579;52.354;16.974;2023-05-01T01:55:44;-124.5;;;-146.1;100.0
45864;BME280;31579;52.354;16.974;2023-05-01T01:56:48;-125.2;;;-146.1;100.0
45864;BME280;31579;52.354;16.974;2023-05-01T01:57:53;-125.9;;;-146.1;100.0
45864;BME280;31579;52.354;16.974;2023-05-01T01:58:57;-126.2;;;-146.1;100.0
45864;BME280;31579;52.354;16.974;2023-05-01T02:00:01;-126.3;;;-146.1;100.0
45864;BME280;31579;52.354;16.974;2023-05-01T02:01:06;-126.8;;;-146.1;100.0
45864;BME280;31579;52.354;16.974;2023-05-01T02:02:10;-127.0;;;-146.1;100.0
45864;BME280;31579;52.354;16.974;2023-05-01T02:03:15;-127.2;;;-146.1;100.0
45864;BME280;31579;52.354;16.974;2023-05-01T02:04:18;-128.5;;;-146.1;100.0
45864;BME280;31579;52.354;16.974;2023-05-01T02:05:22;-128.2;;;-146.1;100.0
45864;BME280;31579;52.354;16.974;2023-05-01T02:06:26;-128.4;;;-146.1;100.0
45864;BME280;31579;52.354;16.974;2023-05-01T02:07:30;-128.1;;;-146.1;100.0
45864;BME280;31579;52.354;16.974;2023-05-01T02:08:34;-127.6;;;-146.1;100.0
45864;BME280;31579;52.354;16.974;2023-05-01T02:09:38;-127.8;;;-146.1;100.0
45864;BME280;31579;52.354;16.974;2023-05-01T02:10:42;-127.3;;;-146.1;100.0
45864;BME280;31579;52.354;16.974;2023-05-01T02:11:46;-127.1;;;-146.1;100.0
45864;BME280;31579;52.354;16.974;2023-05-01T02:12:50;-126.7;;;-146.1;100.0
45864;BME280;31579;52.354;16.974;2023-05-01T02:13:54;-126.5;;;-146.1;100.0
45864;BME280;31579;52.354;16.974;2023-05-01T02:14:58;-126.5;;;-146.1;100.0
45864;BME280;31579;52.354;16.974;2023-05-01T02:16:01;-128.8;;;-146.1;100.0
45864;BME280;31579;52.354;16.974;2023-05-01T02:17:03;-128.4;;;-146.1;100.0
45864;BME280;31579;52.354;16.974;2023-05-01T02:18:07;-127.7;;;-146.1;100.0
45864;BME280;31579;52.354;16.974;2023-05-01T02:19:11;-127.5;;;-146.1;100.0
45864;BME280;31579;52.354;16.974;2023-05-01T02:20:15;-127.4;;;-146.1;100.0
45864;BME280;31579;52.354;16.974;2023-05-01T02:21:18;-128.4;;;-146.1;100.0
45864;BME280;31579;52.354;16.974;2023-05-01T02:22:30;-126.3;;;-146.1;100.0
45864;BME280;31579;52.354;16.974;2023-05-01T02:23:34;-127.2;;;-146.1;100.0
45864;BME280;31579;52.354;16.974;2023-05-01T02:24:38;-127.8;;;-146.1;100.0
45864;BME280;31579;52.354;16.974;2023-05-01T02:25:42;-128.4;;;-146.1;100.0
45864;BME280;31579;52.354;16.974;2023-05-01T02:26:48;-129.0;;;-146.1;100.0
45864;BME280;31579;52.354;16.974;2023-05-01T02:27:42;-129.6;;;-146.1;100.0
45864;BME280;31579;52.354;16.974;2023-05-01T02:28:43;-129.2;;;-146.1;100.0
45864;BME280;31579;52.354;16.974;2023-05-01T02:29:47;-129.7;;;-146.1;100.0
45864;BME280;31579;52.354;16.974;2023-05-01T02:30:51;-130.3;;;-146.1;100.0
45864;BME280;31579;52.354;16.974;2023-05-01T02:31:55;-130.6;;;-146.1;100.0
45864;BME280;31579;52.354;16.974;2023-05-01T02:32:59;-130.9;;;-146.1;100.0
45864;BME280;31579;52.354;16.974;2023-05-01T02:34:03;-131.1;;;-146.1;100.0
45864;BME280;31579;52.354;16.974;2023-05-01T02:35:07;-131.3;;;-146.1;100.0
45864;BME280;31579;52.354;16.974;2023-05-01T02:36:11;-131.9;;;-146.1;100.0
45864;BME280;31579;52.354;16.974;2023-05-01T02:37:15;-132.4;;;-146.1;100.0
45864;BME280;31579;52.354;16.974;2023-05-01T02:38:19;-132.9;;;-146.1;100.0
45864;BME280;31579;52.354;16.974;2023-05-01T02:39:23;-133.3;;;-146.1;100.0
45864;BME280;31579;52.354;16.974;2023-05-01T02:40:27;-133.8;;;-146.1;100.0
45864;BME280;31579;52.354;16.974;2023-05-01T02:41:31;-134.4;;;-146.1;100.0
45864;BME280;31579;52.354;16.974;2023-05-01T02:42:34;-136.4;;;-146.1;100.0
45864;BME280;31579;52.354;16.974;2023-05-01T02:43:38;-137.1;;;-146.1;100.0
45864;BME280;31579;52.354;16.974;2023-05-01T02:44:45;-137.7;;;-146.1;100.0
45864;BME280;31579;52.354;16.974;2023-05-01T02:45:46;-138.0;;;-146.1;100.0
45864;BME280;31579;52.354;16.974;2023-05-01T02:46:50;-138.4;;;-146.1;100.0
45864;BME280;31579;52.354;16.974;2023-05-01T02:47:55;-139.1;;;-146.1;100.0
45864;BME280;31579;52.354;16.974;2023-05-01T02:48:59;-139.9;;;-146.1;100.0
45864;BME280;31579;52.354;16.974;2023-05-01T02:50:00;-141.9;;;-146.1;100.0
45864;BME280;31579;52.354;16.974;2023-05-01T02:51:05;-141.6;;;-146.1;100.0
45864;BME280;31579;52.354;16.974;2023-05-01T02:52:10;-141.9;;;-146.1;100.0
45864;BME280;31579;52.354;16.974;2023-05-01T02:53:13;-141.9;;;-146.1;100.0
45864;BME280;31579;52.354;16.974;2023-05-01T02:54:17;-142.3;;;-146.1;100.0
45864;BME280;31579;52.354;16.974;2023-05-01T02:55:21;-142.6;;;-146.1;100.0
45864;BME280;31579;52.354;16.974;2023-05-01T02:56:25;-142.8;;;-146.1;100.0
45864;BME280;31579;52.354;16.974;2023-05-01T02:57:31;-142.9;;;-146.1;100.0
45864;BME280;31579;52.354;16.974;2023-05-01T02:58:36;-141.6;;;-146.1;100.0
45864;BME280;31579;52.354;16.974;2023-05-01T02:59:40;-142.3;;;-146.1;100.0
45864;BME280;31579;52.354;16.974;2023-05-01T03:00:45;-142.5;;;-146.1;100.0
45864;BME280;31579;52.354;16.974;2023-05-01T03:01:48;-142.9;;;-146.1;100.0
45864;BME280;31579;52.354;16.974;2023-05-01T03:02:52;-143.2;;;-146.1;100.0
45864;BME280;31579;52.354;16.974;2023-05-01T03:03:56;-143.5;;;-146.1;100.0
45864;BME280;31579;52.354;16.974;2023-05-01T03:05:00;-143.7;;;-146.1;100.0
45864;BME280;31579;52.354;16.974;2023-05-01T03:06:05;-143.8;;;-146.1;100.0
45864;BME280;31579;52.354;16.974;2023-05-01T03:07:09;-143.9;;;-146.1;100.0
45864;BME280;31579;52.354;16.974;2023-05-01T03:08:13;-144.0;;;-146.1;100.0
45864;BME280;31579;52.354;16.974;2023-05-01T03:09:17;-144.0;;;-146.1;100.0
45864;BME280;31579;52.354;16.974;2023-05-01T03:10:21;-144.1;;;-146.1;100.0
45864;BME280;31579;52.354;16.974;2023-05-01T03:11:25;-144.4;;;-146.1;100.0
45864;BME280;31579;52.354;16.974;2023-05-01T03:12:29;-144.4;;;-146.1;100.0
45864;BME280;31579;52.354;16.974;2023-05-01T03:13:33;-144.7;;;-146.1;100.0
45864;BME280;31579;52.354;16.974;2023-05-01T03:14:35;-145.7;;;-146.1;100.0
45864;BME280;31579;52.354;16.974;2023-05-01T03:15:39;-145.3;;;-146.1;100.0
45864;BME280;31579;52.354;16.974;2023-05-01T03:16:43;-145.3;;;-146.1;100.0
45864;BME280;31579;52.354;16.974;2023-05-01T03:17:47;-145.1;;;-146.1;100.0
45864;BME280;31579;52.354;16.974;2023-05-01T03:18:51;-145.0;;;-146.1;100.0
45864;BME280;31579;52.354;16.974;2023-05-01T03:19:55;-145.1;;;-146.1;100.0
45864;BME280;31579;52.354;16.974;2023-05-01T03:20:59;-145.4;;;-146.1;100.0
45864;BME280;31579;52.354;16.974;2023-05-01T03:22:03;-145.7;;;-146.1;100.0
45864;BME280;31579;52.354;16.974;2023-05-01T03:23:07;-146.2;;;-146.1;100.0
45864;BME280;31579;52.354;16.974;2023-05-01T03:24:11;-146.3;;;-146.1;100.0
45864;BME280;31579;52.354;16.974;2023-05-01T03:25:15;-146.6;;;-146.1;100.0
45864;BME280;31579;52.354;16.974;2023-05-01T03:26:19;-146.6;;;-146.1;100.0
45864;BME280;31579;52.354;16.974;2023-05-01T03:27:23;-146.6;;;-146.1;100.0
45864;BME280;31579;52.354;16.974;2023-05-01T03:28:27;-146.6;;;-146.1;100.0
45864;BME280;31579;52.354;16.974;2023-05-01T03:29:33;-146.6;;;-146.1;100.0
45864;BME280;31579;52.354;16.974;2023-05-01T03:30:36;-146.7;;;-146.1;100.0
45864;BME280;31579;52.354;16.974;2023-05-01T03:31:40;-146.7;;;-146.1;100.0
45864;BME280;31579;52.354;16.974;2023-05-01T03:32:44;-146.9;;;-146.1;100.0
45864;BME280;31579;52.354;16.974;2023-05-01T03:33:49;-146.8;;;-146.1;100.0
45864;BME280;31579;52.354;16.974;2023-05-01T03:34:53;-146.8;;;-146.1;100.0
45864;BME280;31579;52.354;16.974;2023-05-01T03:35:58;-146.7;;;-146.1;100.0
45864;BME280;31579;52.354;16.974;2023-05-01T03:37:01;-146.6;;;-146.1;100.0
45864;BME280;31579;52.354;16.974;2023-05-01T03:38:05;-146.5;;;-146.1;100.0
45864;BME280;31579;52.354;16.974;2023-05-01T03:39:09;-146.5;;;-146.1;100.0
45864;BME280;31579;52.354;16.974;2023-05-01T03:40:13;-146.3;;;-146.1;100.0
45864;BME280;31579;52.354;16.974;2023-05-01T03:41:17;-146.5;;;-146.1;100.0
45864;BME280;31579;52.354;16.974;2023-05-01T03:42:21;-146.6;;;-146.1;100.0
45864;BME280;31579;52.354;16.974;2023-05-01T03:43:25;-146.6;;;-146.1;100.0
45864;BME280;31579;52.354;16.974;2023-05-01T03:44:29;-146.6;;;-146.1;100.0
45864;BME280;31579;52.354;16.974;2023-05-01T03:45:36;-145.8;;;-146.1;100.0
45864;BME280;31579;52.354;16.974;2023-05-01T03:46:40;-146.3;;;-146.1;100.0
45864;BME280;31579;52.354;16.974;2023-05-01T03:47:44;-146.6;;;-146.1;100.0
45864;BME280;31579;52.354;16.974;2023-05-01T03:48:48;-146.6;;;-146.1;100.0
45864;BME280;31579;52.354;16.974;2023-05-01T03:49:52;-146.6;;;-146.1;100.0
45864;BME280;31579;52.354;16.974;2023-05-01T03:50:56;-146.9;;;-146.1;100.0
45864;BME280;31579;52.354;16.974;2023-05-01T03:52:00;-146.9;;;-146.1;100.0
45864;BME280;31579;52.354;16.974;2023-05-01T03:53:05;-146.9;;;-146.1;100.0
45864;BME280;31579;52.354;16.974;2023-05-01T03:54:09;-146.6;;;-146.1;100.0
45864;BME280;31579;52.354;16.974;2023-05-01T03:55:13;-146.4;;;-146.1;100.0
45864;BME280;31579;52.354;16.974;2023-05-01T03:56:17;-146.6;;;-146.1;100.0
45864;BME280;31579;52.354;16.974;2023-05-01T03:57:21;-147.0;;;-146.1;100.0
45864;BME280;31579;52.354;16.974;2023-05-01T03:58:25;-147.8;;;-146.1;100.0
45864;BME280;31579;52.354;16.974;2023-05-01T03:59:29;-148.0;;;-146.1;100.0
45864;BME280;31579;52.354;16.974;2023-05-01T04:00:36;-147.4;;;-146.1;100.0
45864;BME280;31579;52.354;16.974;2023-05-01T04:01:40;-147.9;;;-146.1;100.0
45864;BME280;31579;52.354;16.974;2023-05-01T04:02:44;-147.9;;;-146.1;100.0
45864;BME280;31579;52.354;16.974;2023-05-01T04:03:48;-147.9;;;-146.1;100.0
45864;BME280;31579;52.354;16.974;2023-05-01T04:04:52;-147.9;;;-146.1;100.0
45864;BME280;31579;52.354;16.974;2023-05-01T04:05:56;-148.2;;;-146.1;100.0
45864;BME280;31579;52.354;16.974;2023-05-01T04:07:00;-148.5;;;-146.1;100.0
45864;BME280;31579;52.354;16.974;2023-05-01T04:08:05;-148.8;;;-146.1;100.0
45864;BME280;31579;52.354;16.974;2023-05-01T04:09:09;-149.1;;;-146.1;100.0
45864;BME280;31579;52.354;16.974;2023-05-01T04:10:13;-149.5;;;-146.1;100.0
45864;BME280;31579;52.354;16.974;2023-05-01T04:11:17;-149.5;;;-146.1;100.0
45864;BME280;31579;52.354;16.974;2023-05-01T04:12:21;-149.5;;;-146.1;100.0
45864;BME280;31579;52.354;16.974;2023-05-01T04:13:25;-149.5;;;-146.1;100.0
45864;BME280;31579;52.354;16.974;2023-05-01T04:14:30;-149.5;;;-146.1;100.0
45864;BME280;31579;52.354;16.974;2023-05-01T04:15:33;-150.0;;;-146.1;100.0
45864;BME280;31579;52.354;16.974;2023-05-01T04:16:42;-149.8;;;-146.1;100.0
45864;BME280;31579;52.354;16.974;2023-05-01T04:17:47;-149.8;;;-146.1;100.0
45864;BME280;31579;52.354;16.974;2023-05-01T04:18:51;-149.9;;;-146.1;100.0
45864;BME280;31579;52.354;16.974;2023-05-01T04:19:55;-150.1;;;-146.1;100.0
45864;BME280;31579;52.354;16.974;2023-05-01T04:20:59;-150.1;;;-146.1;100.0
45864;BME280;31579;52.354;16.974;2023-05-01T04:22:03;-150.2;;;-146.1;100.0
45864;BME280;31579;52.354;16.974;2023-05-01T04:23:07;-150.7;;;-146.1;100.0
45864;BME280;31579;52.354;16.974;2023-05-01T04:24:11;-150.9;;;-146.1;100.0
45864;BME280;31579;52.354;16.974;2023-05-01T04:25:15;-151.1;;;-146.1;100.0
45864;BME280;31579;52.354;16.974;2023-05-01T04:26:19;-151.1;;;-146.1;100.0
45864;BME280;31579;52.354;16.974;2023-05-01T04:27:23;-151.1;;;-146.1;100.0
45864;BME280;31579;52.354;16.974;2023-05-01T04:28:27;-150.6;;;-146.1;100.0
45864;BME280;31579;52.354;16.974;2023-05-01T04:29:31;-150.1;;;-146.1;100.0
45864;BME280;31579;52.354;16.974;2023-05-01T04:30:35;-149.1;;;-146.1;100.0
45864;BME280;31579;52.354;16.974;2023-05-01T04:31:39;-147.9;;;-146.1;100.0
45864;BME280;31579;52.354;16.974;2023-05-01T04:32:43;-146.3;;;-146.1;100.0
45864;BME280;31579;52.354;16.974;2023-05-01T04:33:47;-144.2;;;-146.1;100.0
45864;BME280;31579;52.354;16.974;2023-05-01T04:34:51;-142.8;;;-146.1;100.0
45864;BME280;31579;52.354;16.974;2023-05-01T04:35:55;-140.9;;;-146.1;100.0
45864;BME280;31579;52.354;16.974;2023-05-01T04:37:00;-139.8;;;-146.1;100.0
45864;BME280;31579;52.354;16.974;2023-05-01T04:38:04;-135.0;;;-146.1;100.0
45864;BME280;31579;52.354;16.974;2023-05-01T04:39:07;-128.3;;;-146.1;100.0
45864;BME280;31579;52.354;16.974;2023-05-01T04:40:12;-119.8;;;-146.1;100.0
45864;BME280;31579;52.354;16.974;2023-05-01T04:41:15;-108.5;;;-146.1;100.0
45864;BME280;31579;52.354;16.974;2023-05-01T04:42:19;-84.8;;;-146.1;100.0
45864;BME280;31579;52.354;16.974;2023-05-01T04:43:23;-53.0;;;-146.1;100.0
45864;BME280;31579;52.354;16.974;2023-05-01T04:44:27;30.3;;;-146.1;100.0
45864;BME280;31579;52.354;16.974;2023-05-01T04:45:31;130.9;;;-146.1;100.0
45864;BME280;31579;52.354;16.974;2023-05-01T04:46:35;254.1;;;-146.1;100.0
45864;BME280;31579;52.354;16.974;2023-05-01T04:47:37;290.5;;;-146.1;100.0
45864;BME280;31579;52.354;16.974;2023-05-01T04:48:39;496.9;;;-146.1;100.0
45864;BME280;31579;52.354;16.974;2023-05-01T04:49:43;790.7;;;-146.1;100.0
45864;BME280;31579;52.354;16.974;2023-05-01T04:50:47;956.0;;;-146.1;100.0
45864;BME280;31579;52.354;16.974;2023-05-01T04:51:51;1135.2;;;-146.1;100.0
45864;BME280;31579;52.354;16.974;2023-05-01T04:52:56;1132.6;;;-146.1;100.0
45864;BME280;31579;52.354;16.974;2023-05-01T04:54:00;1131.3;;;-146.1;100.0
45864;BME280;31579;52.354;16.974;2023-05-01T04:55:06;1124.6;;;-146.1;100.0
45864;BME280;31579;52.354;16.974;2023-05-01T04:56:09;1122.6;;;-146.1;100.0
45864;BME280;31579;52.354;16.974;2023-05-01T04:57:13;1125.6;;;-146.1;100.0
45864;BME280;31579;52.354;16.974;2023-05-01T04:58:17;1121.7;;;-146.1;100.0
45864;BME280;31579;52.354;16.974;2023-05-01T04:59:22;1104.2;;;-146.1;100.0
45864;BME280;31579;52.354;16.974;2023-05-01T05:00:26;1102.7;;;-146.1;100.0
45864;BME280;31579;52.354;16.974;2023-05-01T05:01:30;1104.1;;;-146.1;100.0
45864;BME280;31579;52.354;16.974;2023-05-01T05:02:34;1101.5;;;-146.1;100.0
45864;BME280;31579;52.354;16.974;2023-05-01T05:03:38;1109.5;;;-146.1;100.0
45864;BME280;31579;52.354;16.974;2023-05-01T05:04:42;1086.4;;;-146.1;100.0
45864;BME280;31579;52.354;16.974;2023-05-01T05:05:46;1094.7;;;-146.1;100.0
45864;BME280;31579;52.354;16.974;2023-05-01T05:06:50;1096.5;;;-146.1;100.0
45864;BME280;31579;52.354;16.974;2023-05-01T05:07:54;1074.6;;;-146.1;100.0
45864;BME280;31579;52.354;16.974;2023-05-01T05:08:58;1079.9;;;-146.1;100.0
45864;BME280;31579;52.354;16.974;2023-05-01T05:10:00;1101.4;;;-146.1;100.0
45864;BME280;31579;52.354;16.974;2023-05-01T05:11:05;1083.4;;;-146.1;100.0
45864;BME280;31579;52.354;16.974;2023-05-01T05:12:09;1076.0;;;-146.1;100.0
45864;BME280;31579;52.354;16.974;2023-05-01T05:13:13;1056.6;;;-146.1;100.0
45864;BME280;31579;52.354;16.974;2023-05-01T05:14:17;1043.8;;;-146.1;100.0
45864;BME280;31579;52.354;16.974;2023-05-01T05:15:21;1049.5;;;-146.1;100.0
45864;BME280;31579;52.354;16.974;2023-05-01T05:16:25;1034.9;;;-146.1;100.0
45864;BME280;31579;52.354;16.974;2023-05-01T05:17:29;1030.2;;;-146.1;100.0
45864;BME280;31579;52.354;16.974;2023-05-01T05:18:33;1044.9;;;-146.1;100.0
45864;BME280;31579;52.354;16.974;2023-05-01T05:19:37;1041.2;;;-146.1;100.0
45864;BME280;31579;52.354;16.974;2023-05-01T05:20:40;1008.3;;;-146.1;100.0
45864;BME280;31579;52.354;16.974;2023-05-01T05:21:44;1021.5;;;-146.1;100.0
45864;BME280;31579;52.354;16.974;2023-05-01T05:22:48;1030.0;;;-146.1;100.0
45864;BME280;31579;52.354;16.974;2023-05-01T05:23:52;1043.9;;;-146.1;100.0
45864;BME280;31579;52.354;16.974;2023-05-01T05:24:56;1028.3;;;-146.1;100.0
45864;BME280;31579;52.354;16.974;2023-05-01T05:26:00;1014.3;;;-146.1;100.0
45864;BME280;31579;52.354;16.974;2023-05-01T05:27:05;981.8;;;-146.1;100.0
45864;BME280;31579;52.354;16.974;2023-05-01T05:28:09;962.3;;;-146.1;100.0
45864;BME280;31579;52.354;16.974;2023-05-01T05:29:13;936.5;;;-146.1;100.0
45864;BME280;31579;52.354;16.974;2023-05-01T05:30:17;906.7;;;-146.1;100.0
45864;BME280;31579;52.354;16.974;2023-05-01T05:31:21;856.1;;;-146.1;100.0
45864;BME280;31579;52.354;16.974;2023-05-01T05:32:25;850.0;;;-146.1;100.0
45864;BME280;31579;52.354;16.974;2023-05-01T05:33:29;832.3;;;-146.1;100.0
45864;BME280;31579;52.354;16.974;2023-05-01T05:34:33;873.4;;;-146.1;100.0
45864;BME280;31579;52.354;16.974;2023-05-01T05:35:38;842.4;;;-146.1;100.0
45864;BME280;31579;52.354;16.974;2023-05-01T05:36:42;910.9;;;-146.1;100.0
45864;BME280;31579;52.354;16.974;2023-05-01T05:37:46;934.4;;;-146.1;100.0
45864;BME280;31579;52.354;16.974;2023-05-01T05:38:50;937.6;;;-146.1;100.0
45864;BME280;31579;52.354;16.974;2023-05-01T05:39:54;943.1;;;-146.1;100.0
45864;BME280;31579;52.354;16.974;2023-05-01T05:40:58;874.1;;;-146.1;100.0
45864;BME280;31579;52.354;16.974;2023-05-01T05:42:00;980.3;;;-146.1;100.0
45864;BME280;31579;52.354;16.974;2023-05-01T05:43:03;938.2;;;-146.1;100.0
45864;BME280;31579;52.354;16.974;2023-05-01T05:44:07;889.5;;;-146.1;100.0
45864;BME280;31579;52.354;16.974;2023-05-01T05:45:11;837.0;;;-146.1;100.0
45864;BME280;31579;52.354;16.974;2023-05-01T05:46:15;741.7;;;-146.1;100.0
45864;BME280;31579;52.354;16.974;2023-05-01T05:46:44;845.8;;;-146.1;100.0
45864;BME280;31579;52.354;16.974;2023-05-01T05:47:48;844.4;;;-146.1;100.0
45864;BME280;31579;52.354;16.974;2023-05-01T05:48:52;840.6;;;-146.1;100.0
45864;BME280;31579;52.354;16.974;2023-05-01T05:49:56;827.8;;;-146.1;100.0
45864;BME280;31579;52.354;16.974;2023-05-01T05:51:00;761.8;;;-146.1;100.0
45864;BME280;31579;52.354;16.974;2023-05-01T05:52:05;706.1;;;-146.1;100.0
45864;BME280;31579;52.354;16.974;2023-05-01T05:53:09;768.4;;;-146.1;100.0
45864;BME280;31579;52.354;16.974;2023-05-01T05:54:13;777.9;;;-146.1;100.0
45864;BME280;31579;52.354;16.974;2023-05-01T05:55:17;649.8;;;-146.1;100.0
45864;BME280;31579;52.354;16.974;2023-05-01T05:56:21;631.6;;;-146.1;100.0
45864;BME280;31579;52.354;16.974;2023-05-01T05:57:25;653.7;;;-146.1;100.0
45864;BME280;31579;52.354;16.974;2023-05-01T05:58:29;775.7;;;-146.1;100.0
45864;BME280;31579;52.354;16.974;2023-05-01T05:59:33;644.9;;;-146.1;100.0
45864;BME280;31579;52.354;16.974;2023-05-01T06:00:38;655.7;;;-146.1;100.0
45864;BME280;31579;52.354;16.974;2023-05-01T06:01:41;799.0;;;-146.1;100.0